Time;durP1;ratioP1;P1;durP2;ratioP2;P2;SDS_P1;SDS_P2;PMS_P1;PMS_P2;Temp;Humidity;BMP_temperature;BMP_pressure;BME280_temperature;BME280_humidity;BME280_pressure;Samples;Min_cycle;Max_cycle;Signal;HPM_P1;HPM_P2
2022/07/28 00:02:23;;;;;;;7.10;2.65;;;;;;;;;;5031525;28;20037;-79
2022/07/28 00:04:49;;;;;;;3.88;1.98;;;;;;;;;;5032296;28;20405;-82
2022/07/28 00:07:15;;;;;;;4.25;1.63;;;;;;;;;;5030601;28;20049;-79
2022/07/28 00:09:41;;;;;;;2.63;1.73;;;;;;;;;;5016107;28;20048;-80
2022/07/28 00:12:08;;;;;;;6.75;1.90;;;;;;;;;;5036759;28;20072;-82
2022/07/28 00:14:34;;;;;;;3.38;1.60;;;;;;;;;;5011102;28;20477;-79
2022/07/28 00:17:00;;;;;;;5.97;1.70;;;;;;;;;;5046077;28;20089;-78
2022/07/28 00:19:27;;;;;;;3.25;1.55;;;;;;;;;;5033039;28;20104;-81
2022/07/28 00:21:53;;;;;;;6.25;1.67;;;;;;;;;;5046512;28;20056;-81
2022/07/28 00:24:19;;;;;;;5.50;1.70;;;;;;;;;;5008492;28;20128;-80
2022/07/28 00:26:45;;;;;;;3.22;1.67;;;;;;;;;;5034260;28;20037;-83
2022/07/28 00:29:13;;;;;;;9.07;1.63;;;;;;;;;;5032224;28;20075;-81
2022/07/28 00:31:39;;;;;;;2.40;1.55;;;;;;;;;;5015341;28;20127;-80
2022/07/28 00:34:05;;;;;;;3.25;1.80;;;;;;;;;;5011909;28;20048;-81
2022/07/28 00:36:32;;;;;;;5.18;2.03;;;;;;;;;;5012065;28;20051;-82
2022/07/28 00:38:58;;;;;;;3.47;2.13;;;;;;;;;;5030210;28;20052;-83
2022/07/28 00:41:24;;;;;;;5.57;1.90;;;;;;;;;;5030504;28;20033;-82
2022/07/28 00:43:51;;;;;;;4.85;1.92;;;;;;;;;;5029526;28;20120;-80
2022/07/28 00:46:21;;;;;;;4.72;2.45;;;;;;;;;;5028390;28;20033;-77
2022/07/28 00:48:49;;;;;;;3.03;1.92;;;;;;;;;;5011010;28;20053;-78
2022/07/28 00:51:16;;;;;;;4.38;1.75;;;;;;;;;;5027525;28;20048;-79
2022/07/28 00:53:44;;;;;;;3.50;1.90;;;;;;;;;;4989918;28;20433;-79
2022/07/28 00:56:14;;;;;;;8.25;2.08;;;;;;;;;;5026950;28;20410;-80
2022/07/28 00:58:40;;;;;;;4.75;2.22;;;;;;;;;;5010845;28;20045;-79
2022/07/28 01:01:07;;;;;;;5.43;2.45;;;;;;;;;;5027774;28;20041;-76
2022/07/28 01:03:35;;;;;;;4.78;2.30;;;;;;;;;;5029064;28;20037;-78
2022/07/28 01:06:08;;;;;;;3.42;2.10;;;;;;;;;;5025581;28;20055;-78
2022/07/28 01:08:37;;;;;;;5.22;2.20;;;;;;;;;;5027379;28;20053;-77
2022/07/28 01:11:08;;;;;;;5.95;2.45;;;;;;;;;;5026722;28;20080;-77
2022/07/28 01:13:38;;;;;;;5.38;2.33;;;;;;;;;;5027894;28;20045;-79
2022/07/28 01:16:05;;;;;;;4.65;2.40;;;;;;;;;;5023383;28;20041;-77
2022/07/28 01:18:40;;;;;;;3.70;2.40;;;;;;;;;;5009695;28;20092;-75
2022/07/28 01:21:18;;;;;;;2.67;1.90;;;;;;;;;;5010906;28;20092;-77
2022/07/28 01:23:47;;;;;;;2.75;2.10;;;;;;;;;;5025791;28;20128;-78
2022/07/28 01:26:13;;;;;;;7.20;2.30;;;;;;;;;;5024861;28;20068;-77
2022/07/28 01:28:39;;;;;;;3.95;2.35;;;;;;;;;;5027410;28;20065;-76
2022/07/28 01:31:07;;;;;;;4.50;2.50;;;;;;;;;;5028112;28;20070;-77
2022/07/28 01:33:45;;;;;;;10.10;2.60;;;;;;;;;;5015351;28;20052;-76
2022/07/28 01:36:17;;;;;;;3.90;2.90;;;;;;;;;;5013025;28;20478;-77
2022/07/28 01:38:43;;;;;;;4.15;2.40;;;;;;;;;;5035950;28;20104;-78
2022/07/28 01:41:11;;;;;;;5.97;2.55;;;;;;;;;;5030104;28;20038;-78
2022/07/28 01:43:39;;;;;;;6.82;2.45;;;;;;;;;;5028690;28;20405;-78
2022/07/28 01:46:06;;;;;;;6.45;2.45;;;;;;;;;;5026520;28;20077;-77
2022/07/28 01:48:32;;;;;;;3.80;2.42;;;;;;;;;;5010204;28;20037;-78
2022/07/28 01:50:59;;;;;;;7.75;2.30;;;;;;;;;;5008996;28;20045;-77
2022/07/28 01:53:26;;;;;;;5.68;2.72;;;;;;;;;;5014851;28;20060;-78
2022/07/28 01:55:52;;;;;;;3.33;2.40;;;;;;;;;;5007860;28;20045;-78
2022/07/28 01:58:19;;;;;;;7.95;2.60;;;;;;;;;;5026485;28;20041;-79
2022/07/28 02:00:51;;;;;;;4.20;3.00;;;;;;;;;;5007103;28;20041;-78
2022/07/28 02:03:21;;;;;;;5.40;2.90;;;;;;;;;;5026639;28;20046;-80
2022/07/28 02:05:51;;;;;;;4.97;2.70;;;;;;;;;;5025754;28;20049;-79
2022/07/28 02:08:20;;;;;;;4.40;3.10;;;;;;;;;;5028488;28;20034;-78
2022/07/28 02:11:38;;;;;;;7.63;3.28;;;;;;;;;;5024257;28;20136;-78
2022/07/28 02:13:35;;;;;;;8.88;3.08;;;;;;;;;;5026394;28;20506;-78
2022/07/28 02:16:02;;;;;;;5.25;2.95;;;;;;;;;;5025239;28;20074;-79
2022/07/28 02:18:29;;;;;;;6.68;2.60;;;;;;;;;;5027581;28;20042;-77
2022/07/28 02:20:55;;;;;;;3.92;2.70;;;;;;;;;;5011944;28;20049;-79
2022/07/28 02:23:22;;;;;;;6.63;2.80;;;;;;;;;;5030588;28;20049;-78
2022/07/28 02:25:48;;;;;;;6.93;2.40;;;;;;;;;;5031405;28;20188;-78
2022/07/28 02:28:15;;;;;;;3.92;2.58;;;;;;;;;;4994155;28;20041;-78
2022/07/28 02:30:47;;;;;;;5.05;2.45;;;;;;;;;;5029966;28;20077;-79
2022/07/28 02:33:17;;;;;;;5.15;2.45;;;;;;;;;;5029110;28;20033;-79
2022/07/28 02:35:54;;;;;;;6.32;2.70;;;;;;;;;;5030808;28;20060;-78
2022/07/28 02:38:22;;;;;;;3.88;2.90;;;;;;;;;;5030734;28;20045;-78
2022/07/28 02:40:51;;;;;;;8.77;3.25;;;;;;;;;;5031959;28;20049;-78
2022/07/28 02:43:20;;;;;;;6.45;3.38;;;;;;;;;;5011144;28;20038;-81
2022/07/28 02:45:48;;;;;;;5.93;3.13;;;;;;;;;;5028923;28;20523;-77
2022/07/28 02:48:17;;;;;;;7.63;2.83;;;;;;;;;;5011874;28;20041;-79
2022/07/28 02:50:45;;;;;;;5.78;3.03;;;;;;;;;;5030093;28;20050;-78
2022/07/28 02:53:13;;;;;;;7.63;3.08;;;;;;;;;;5031282;28;20505;-81
2022/07/28 02:55:39;;;;;;;8.27;3.38;;;;;;;;;;5030411;28;20080;-82
2022/07/28 02:58:07;;;;;;;3.78;2.95;;;;;;;;;;5031053;28;20045;-82
2022/07/28 03:00:33;;;;;;;5.03;3.00;;;;;;;;;;5029241;28;20048;-79
2022/07/28 03:02:59;;;;;;;12.02;3.53;;;;;;;;;;5013558;28;20052;-77
2022/07/28 03:05:27;;;;;;;8.13;3.05;;;;;;;;;;5011980;28;20046;-78
2022/07/28 03:07:54;;;;;;;5.07;3.53;;;;;;;;;;5026467;28;20469;-77
2022/07/28 03:10:22;;;;;;;7.47;3.10;;;;;;;;;;5030755;28;20056;-78
2022/07/28 03:12:48;;;;;;;4.70;2.80;;;;;;;;;;5035107;28;20057;-81
2022/07/28 03:15:14;;;;;;;10.52;2.97;;;;;;;;;;5049231;28;20019;-79
2022/07/28 03:17:41;;;;;;;7.30;2.95;;;;;;;;;;5044730;28;20049;-79
2022/07/28 03:20:08;;;;;;;6.93;3.17;;;;;;;;;;5047619;28;20038;-77
2022/07/28 03:22:34;;;;;;;4.75;2.95;;;;;;;;;;5035964;28;20053;-77
2022/07/28 03:25:00;;;;;;;7.50;3.20;;;;;;;;;;5030372;28;20081;-79
2022/07/28 03:27:34;;;;;;;8.80;2.88;;;;;;;;;;5039361;28;20052;-77
2022/07/28 03:30:08;;;;;;;10.02;3.20;;;;;;;;;;5040816;28;20096;-79
2022/07/28 03:32:36;;;;;;;3.90;2.55;;;;;;;;;;5029433;28;20077;-78
2022/07/28 03:35:03;;;;;;;7.10;3.13;;;;;;;;;;5041229;28;20559;-77
2022/07/28 03:37:40;;;;;;;5.88;2.58;;;;;;;;;;5035268;28;20066;-80
2022/07/28 03:40:08;;;;;;;6.18;2.95;;;;;;;;;;5029860;28;20120;-80
2022/07/28 03:42:35;;;;;;;7.10;2.92;;;;;;;;;;5012933;28;20130;-77
2022/07/28 03:45:01;;;;;;;7.75;3.45;;;;;;;;;;5012096;28;20068;-79
2022/07/28 03:47:27;;;;;;;5.28;3.33;;;;;;;;;;5011744;28;20045;-78
2022/07/28 03:49:53;;;;;;;4.70;3.70;;;;;;;;;;5027303;28;20156;-79
2022/07/28 03:52:19;;;;;;;8.27;3.40;;;;;;;;;;5013973;28;20053;-80
2022/07/28 03:54:45;;;;;;;6.45;3.47;;;;;;;;;;5034126;28;20042;-81
2022/07/28 03:57:12;;;;;;;5.22;3.20;;;;;;;;;;5033585;28;20045;-81
2022/07/28 03:59:38;;;;;;;7.13;3.30;;;;;;;;;;5010706;28;20116;-82
2022/07/28 04:02:04;;;;;;;7.30;3.50;;;;;;;;;;5007360;28;20033;-81
2022/07/28 04:04:30;;;;;;;7.60;3.00;;;;;;;;;;5026687;28;20137;-82
2022/07/28 04:06:56;;;;;;;5.97;3.45;;;;;;;;;;5036405;28;20041;-80
2022/07/28 04:09:22;;;;;;;7.25;3.42;;;;;;;;;;5029291;28;20033;-80
2022/07/28 04:11:48;;;;;;;9.13;3.20;;;;;;;;;;5026887;28;20120;-82
2022/07/28 04:14:16;;;;;;;9.55;3.33;;;;;;;;;;4994211;28;20043;-82
2022/07/28 04:16:42;;;;;;;5.93;2.92;;;;;;;;;;5027196;28;20085;-78
2022/07/28 04:19:08;;;;;;;5.35;2.80;;;;;;;;;;5017374;28;20423;-81
2022/07/28 04:21:34;;;;;;;4.63;2.95;;;;;;;;;;5034851;28;20464;-81
2022/07/28 04:24:08;;;;;;;6.68;3.10;;;;;;;;;;5012387;28;20049;-79
2022/07/28 04:26:47;;;;;;;6.72;3.17;;;;;;;;;;4997795;28;20123;-80
2022/07/28 04:29:13;;;;;;;4.72;2.50;;;;;;;;;;5028094;28;20461;-77
2022/07/28 04:31:39;;;;;;;5.20;3.20;;;;;;;;;;5029175;28;20132;-79
2022/07/28 04:34:05;;;;;;;5.68;3.08;;;;;;;;;;5026946;28;20036;-76
2022/07/28 04:36:31;;;;;;;4.47;2.72;;;;;;;;;;5001130;28;20204;-77
2022/07/28 04:38:58;;;;;;;4.43;2.70;;;;;;;;;;5028362;28;20041;-77
2022/07/28 04:41:25;;;;;;;5.53;2.60;;;;;;;;;;5027234;28;20382;-77
2022/07/28 04:43:51;;;;;;;3.92;2.60;;;;;;;;;;5015639;28;20052;-78
2022/07/28 04:46:17;;;;;;;3.25;2.72;;;;;;;;;;5034705;28;20493;-77
2022/07/28 04:48:44;;;;;;;11.30;3.03;;;;;;;;;;4983050;28;20041;-79
2022/07/28 04:51:10;;;;;;;7.10;2.83;;;;;;;;;;5031238;28;20041;-78
2022/07/28 04:53:36;;;;;;;8.63;2.75;;;;;;;;;;5034866;28;20128;-77
2022/07/28 04:56:03;;;;;;;5.32;2.70;;;;;;;;;;4991748;28;20067;-77
2022/07/28 04:58:29;;;;;;;7.95;2.75;;;;;;;;;;5025149;28;20037;-77
2022/07/28 05:00:55;;;;;;;2.97;2.40;;;;;;;;;;5027963;28;20041;-79
2022/07/28 05:03:22;;;;;;;7.10;2.67;;;;;;;;;;5025467;28;20473;-78
2022/07/28 05:05:48;;;;;;;7.03;2.65;;;;;;;;;;5027146;28;20041;-79
2022/07/28 05:08:14;;;;;;;7.15;3.30;;;;;;;;;;5027817;28;20551;-78
2022/07/28 05:10:40;;;;;;;9.93;2.90;;;;;;;;;;5010438;28;20056;-79
2022/07/28 05:13:06;;;;;;;7.45;2.67;;;;;;;;;;5007565;28;20168;-80
2022/07/28 05:15:33;;;;;;;5.13;2.75;;;;;;;;;;5016810;28;20049;-79
2022/07/28 05:17:59;;;;;;;5.85;2.47;;;;;;;;;;5026946;28;20049;-78
2022/07/28 05:20:25;;;;;;;5.70;2.83;;;;;;;;;;5030118;28;20060;-79
2022/07/28 05:22:52;;;;;;;6.40;2.22;;;;;;;;;;5035125;28;20045;-78
2022/07/28 05:25:22;;;;;;;6.13;2.40;;;;;;;;;;4991633;28;20033;-77
2022/07/28 05:27:54;;;;;;;7.50;2.80;;;;;;;;;;5017624;28;20068;-79
2022/07/28 05:30:21;;;;;;;6.32;2.67;;;;;;;;;;5030678;28;20096;-82
2022/07/28 05:32:48;;;;;;;3.55;2.70;;;;;;;;;;5027748;28;20045;-81
2022/07/28 05:35:14;;;;;;;5.10;2.42;;;;;;;;;;5028068;28;20409;-79
2022/07/28 05:37:40;;;;;;;7.22;2.65;;;;;;;;;;5028608;28;20038;-80
2022/07/28 05:40:17;;;;;;;3.63;1.90;;;;;;;;;;4994293;28;20042;-78
2022/07/28 05:42:43;;;;;;;4.40;1.90;;;;;;;;;;5028669;28;20132;-78
2022/07/28 05:45:10;;;;;;;9.32;2.10;;;;;;;;;;5011889;28;20056;-79
2022/07/28 05:47:54;;;;;;;5.07;2.20;;;;;;;;;;5003815;28;21462;-78
2022/07/28 05:50:20;;;;;;;;;;;;;;;;;;5029483;28;20061;-76
2022/07/28 05:52:47;;;;;;;7.43;2.25;;;;;;;;;;5028794;28;20297;-78
2022/07/28 05:55:14;;;;;;;8.73;2.35;;;;;;;;;;5014756;28;20397;-80
2022/07/28 05:57:41;;;;;;;5.03;2.50;;;;;;;;;;5032941;28;20044;-77
2022/07/28 06:00:09;;;;;;;3.83;2.47;;;;;;;;;;5033237;28;20148;-77
2022/07/28 06:02:35;;;;;;;4.85;2.33;;;;;;;;;;5013824;28;20372;-78
2022/07/28 06:05:01;;;;;;;8.82;2.50;;;;;;;;;;5013911;28;20042;-78
2022/07/28 06:07:27;;;;;;;5.90;2.05;;;;;;;;;;5032856;28;20037;-81
2022/07/28 06:09:53;;;;;;;6.00;2.45;;;;;;;;;;5016600;28;20069;-77
2022/07/28 06:12:19;;;;;;;6.20;2.83;;;;;;;;;;5017369;28;20060;-78
2022/07/28 06:14:45;;;;;;;4.70;2.17;;;;;;;;;;5018830;28;20053;-77
2022/07/28 06:17:13;;;;;;;7.63;2.42;;;;;;;;;;5035885;28;20156;-78
2022/07/28 06:19:40;;;;;;;9.07;2.60;;;;;;;;;;5031791;28;20111;-78
2022/07/28 06:22:06;;;;;;;5.57;1.83;;;;;;;;;;5023950;28;20089;-78
2022/07/28 06:24:32;;;;;;;2.80;1.73;;;;;;;;;;5027196;28;20103;-78
2022/07/28 06:27:00;;;;;;;5.57;1.80;;;;;;;;;;5031692;28;20068;-77
2022/07/28 06:29:26;;;;;;;7.00;1.70;;;;;;;;;;5011437;28;20060;-78
2022/07/28 06:31:52;;;;;;;3.35;1.20;;;;;;;;;;5038254;28;20037;-78
2022/07/28 06:34:21;;;;;;;3.38;1.27;;;;;;;;;;4975482;28;20501;-78
2022/07/28 06:36:47;;;;;;;1.80;0.85;;;;;;;;;;4978281;28;20053;-78
2022/07/28 06:39:13;;;;;;;5.20;1.20;;;;;;;;;;5029204;28;20128;-78
2022/07/28 06:41:42;;;;;;;4.63;1.17;;;;;;;;;;5030045;28;20048;-78
2022/07/28 06:44:09;;;;;;;5.38;1.45;;;;;;;;;;5029599;28;20405;-78
2022/07/28 06:46:35;;;;;;;3.78;1.48;;;;;;;;;;5030592;28;20509;-77
2022/07/28 06:49:04;;;;;;;4.03;1.40;;;;;;;;;;5012777;28;20160;-78
2022/07/28 06:51:31;;;;;;;8.85;1.40;;;;;;;;;;4995902;28;20060;-77
2022/07/28 06:53:57;;;;;;;3.97;1.73;;;;;;;;;;5018034;28;20464;-78
2022/07/28 06:56:24;;;;;;;4.45;1.45;;;;;;;;;;5029040;28;20053;-78
2022/07/28 06:58:50;;;;;;;3.03;1.42;;;;;;;;;;5032154;28;20063;-78
2022/07/28 07:01:16;;;;;;;4.40;1.45;;;;;;;;;;5029882;28;20418;-77
2022/07/28 07:03:48;;;;;;;6.18;1.67;;;;;;;;;;5030984;28;20136;-78
2022/07/28 07:06:14;;;;;;;5.38;1.25;;;;;;;;;;5029298;28;20046;-78
2022/07/28 07:08:40;;;;;;;4.80;1.33;;;;;;;;;;5030923;28;20433;-77
2022/07/28 07:11:06;;;;;;;1.95;1.17;;;;;;;;;;4980769;28;20042;-77
2022/07/28 07:13:35;;;;;;;7.60;1.50;;;;;;;;;;5029793;28;20631;-78
2022/07/28 07:16:01;;;;;;;4.05;1.00;;;;;;;;;;5015461;28;20092;-77
2022/07/28 07:18:27;;;;;;;3.08;1.15;;;;;;;;;;5017991;28;20076;-78
2022/07/28 07:20:56;;;;;;;6.80;1.35;;;;;;;;;;5037598;28;20142;-78
2022/07/28 07:23:22;;;;;;;2.60;1.10;;;;;;;;;;5030839;28;20054;-78
2022/07/28 07:25:48;;;;;;;4.57;0.93;;;;;;;;;;5029676;28;20044;-77
2022/07/28 07:28:14;;;;;;;3.15;1.25;;;;;;;;;;5002336;28;20527;-77
2022/07/28 07:30:40;;;;;;;4.78;1.20;;;;;;;;;;5018690;28;20045;-76
2022/07/28 07:33:06;;;;;;;2.65;0.95;;;;;;;;;;5037137;28;20033;-77
2022/07/28 07:35:33;;;;;;;3.83;1.00;;;;;;;;;;5032183;28;20375;-77
2022/07/28 07:37:59;;;;;;;5.35;1.00;;;;;;;;;;5030455;28;20160;-77
2022/07/28 07:40:25;;;;;;;3.50;1.30;;;;;;;;;;5012516;28;20045;-79
2022/07/28 07:42:51;;;;;;;2.80;1.10;;;;;;;;;;5029507;28;20069;-78
2022/07/28 07:45:17;;;;;;;3.85;1.00;;;;;;;;;;5028962;28;20088;-78
2022/07/28 07:47:43;;;;;;;3.45;1.00;;;;;;;;;;5030242;28;20781;-78
2022/07/28 07:50:09;;;;;;;7.25;3.53;;;;;;;;;;5028247;28;20124;-79
2022/07/28 07:52:36;;;;;;;3.92;1.58;;;;;;;;;;5034279;28;20038;-79
2022/07/28 07:55:03;;;;;;;2.97;0.82;;;;;;;;;;5027691;28;20107;-82
2022/07/28 07:57:29;;;;;;;5.15;1.10;;;;;;;;;;4999689;28;20521;-83
2022/07/28 07:59:55;;;;;;;5.05;1.33;;;;;;;;;;5021522;28;20052;-82
2022/07/28 08:02:21;;;;;;;3.60;1.08;;;;;;;;;;5021384;28;20085;-78
2022/07/28 08:04:47;;;;;;;8.25;1.27;;;;;;;;;;5024872;28;20039;-83
2022/07/28 08:07:13;;;;;;;3.92;0.82;;;;;;;;;;5006859;28;21476;-79
2022/07/28 08:09:39;;;;;;;5.00;0.82;;;;;;;;;;5024127;28;20045;-78
2022/07/28 08:12:06;;;;;;;1.95;0.95;;;;;;;;;;5004085;28;20045;-80
2022/07/28 08:14:32;;;;;;;3.63;0.88;;;;;;;;;;5005900;28;20052;-78
2022/07/28 08:16:58;;;;;;;5.07;0.80;;;;;;;;;;5021149;28;20124;-80
2022/07/28 08:19:39;;;;;;;1.95;0.73;;;;;;;;;;4984690;28;20114;-77
2022/07/28 08:22:05;;;;;;;4.03;1.58;;;;;;;;;;4986119;28;20058;-79
2022/07/28 08:24:32;;;;;;;2.00;0.80;;;;;;;;;;5002988;28;20037;-78
2022/07/28 08:26:58;;;;;;;6.18;0.95;;;;;;;;;;5011396;28;20564;-76
2022/07/28 08:29:24;;;;;;;2.88;0.75;;;;;;;;;;5029931;28;20097;-77
2022/07/28 08:31:50;;;;;;;2.85;0.80;;;;;;;;;;5022804;28;20037;-77
2022/07/28 08:34:16;;;;;;;2.67;1.20;;;;;;;;;;5023381;28;20068;-77
2022/07/28 08:36:42;;;;;;;5.13;1.10;;;;;;;;;;5005631;28;20037;-80
2022/07/28 08:39:08;;;;;;;1.10;0.70;;;;;;;;;;5023682;28;20068;-76
2022/07/28 08:41:44;;;;;;;2.40;0.68;;;;;;;;;;5026484;28;20069;-79
2022/07/28 08:44:14;;;;;;;4.75;0.82;;;;;;;;;;5009096;28;20084;-77
2022/07/28 08:46:48;;;;;;;3.80;0.90;;;;;;;;;;5027882;28;20057;-77
2022/07/28 08:49:15;;;;;;;4.80;0.90;;;;;;;;;;5026098;28;20559;-77
2022/07/28 08:51:41;;;;;;;3.53;1.15;;;;;;;;;;5010265;28;20053;-77
2022/07/28 08:54:09;;;;;;;9.77;1.42;;;;;;;;;;5008538;28;20125;-79
2022/07/28 08:56:39;;;;;;;5.07;0.90;;;;;;;;;;5009417;28;20081;-77
2022/07/28 08:59:05;;;;;;;3.50;1.10;;;;;;;;;;4996211;28;20033;-78
2022/07/28 09:01:31;;;;;;;2.63;1.15;;;;;;;;;;4993167;28;20040;-77
2022/07/28 09:03:58;;;;;;;3.70;0.85;;;;;;;;;;5013849;28;20036;-79
2022/07/28 09:06:24;;;;;;;5.80;1.05;;;;;;;;;;5034855;28;20421;-78
2022/07/28 09:09:08;;;;;;;7.05;1.13;;;;;;;;;;5043708;28;20071;-77
2022/07/28 09:11:37;;;;;;;4.60;0.90;;;;;;;;;;5045655;28;20504;-76
2022/07/28 09:14:03;;;;;;;6.68;1.00;;;;;;;;;;5008518;28;20030;-77
2022/07/28 09:16:54;;;;;;;3.90;0.90;;;;;;;;;;5006521;28;20513;-76
2022/07/28 09:19:20;;;;;;;3.20;0.82;;;;;;;;;;5026309;28;20065;-78
2022/07/28 09:21:46;;;;;;;5.47;0.90;;;;;;;;;;5024134;28;20139;-77
2022/07/28 09:24:31;;;;;;;2.92;0.70;;;;;;;;;;4997075;28;20049;-77
2022/07/28 09:27:01;;;;;;;3.03;0.93;;;;;;;;;;5002336;28;20037;-77
2022/07/28 09:29:27;;;;;;;3.50;1.27;;;;;;;;;;5007469;28;20108;-76
2022/07/28 09:31:53;;;;;;;5.85;1.20;;;;;;;;;;5006564;28;20048;-78
2022/07/28 09:34:21;;;;;;;5.97;1.08;;;;;;;;;;5022422;28;20529;-77
2022/07/28 09:36:54;;;;;;;5.68;1.02;;;;;;;;;;4993827;28;20048;-77
2022/07/28 09:39:33;;;;;;;2.88;0.90;;;;;;;;;;5010585;28;20083;-77
2022/07/28 09:41:59;;;;;;;2.88;1.13;;;;;;;;;;5021558;28;20052;-77
2022/07/28 09:44:26;;;;;;;2.45;1.02;;;;;;;;;;5020463;28;20428;-78
2022/07/28 09:46:53;;;;;;;4.05;1.38;;;;;;;;;;5019892;28;20467;-79
2022/07/28 09:49:41;;;;;;;2.35;1.08;;;;;;;;;;5002193;28;20049;-76
2022/07/28 09:52:09;;;;;;;2.03;0.70;;;;;;;;;;5018313;28;20057;-78
2022/07/28 09:54:35;;;;;;;3.78;1.08;;;;;;;;;;5001174;28;20370;-79
2022/07/28 09:57:01;;;;;;;2.90;0.75;;;;;;;;;;5019906;28;20057;-77
2022/07/28 09:59:43;;;;;;;2.30;0.80;;;;;;;;;;5000664;28;20529;-76
2022/07/28 10:02:11;;;;;;;4.68;1.00;;;;;;;;;;5019924;28;20061;-77
2022/07/28 10:04:38;;;;;;;2.30;0.80;;;;;;;;;;5002806;28;20037;-79
2022/07/28 10:07:06;;;;;;;1.67;0.93;;;;;;;;;;4985743;28;20029;-76
2022/07/28 10:09:56;;;;;;;2.05;0.80;;;;;;;;;;5000423;28;20560;-79
2022/07/28 10:26:02;;;;;;;3.53;0.93;;;;;;;;;;5015966;28;20589;-79
2022/07/28 10:41:42;;;;;;;4.55;0.75;;;;;;;;;;4935339;28;20051;-78
2022/07/28 10:44:30;;;;;;;1.88;0.73;;;;;;;;;;5023737;28;20041;-78
2022/07/28 10:47:22;;;;;;;2.20;0.80;;;;;;;;;;5005069;28;20041;-79
2022/07/28 10:49:48;;;;;;;3.42;0.80;;;;;;;;;;5025757;28;20076;-77
2022/07/28 10:52:16;;;;;;;2.35;0.88;;;;;;;;;;5022963;28;20084;-77
2022/07/28 10:55:03;;;;;;;2.75;0.80;;;;;;;;;;4998842;28;20033;-77
2022/07/28 10:57:30;;;;;;;6.05;0.98;;;;;;;;;;5006325;28;20081;-78
2022/07/28 11:00:07;;;;;;;1.65;0.82;;;;;;;;;;5006449;28;20041;-77
2022/07/28 11:02:50;;;;;;;3.50;0.70;;;;;;;;;;5029102;28;20053;-78
2022/07/28 11:05:28;;;;;;;4.03;0.90;;;;;;;;;;5031624;28;20052;-79
2022/07/28 11:07:55;;;;;;;0.60;0.52;;;;;;;;;;5022195;28;20553;-77
2022/07/28 11:10:21;;;;;;;1.45;0.70;;;;;;;;;;5007787;28;20128;-81
2022/07/28 11:12:51;;;;;;;5.60;0.90;;;;;;;;;;5023505;28;20057;-80
2022/07/28 11:15:28;;;;;;;2.65;1.00;;;;;;;;;;5021147;28;20073;-78
2022/07/28 11:17:58;;;;;;;1.85;0.70;;;;;;;;;;5005328;28;20093;-77
2022/07/28 11:20:44;;;;;;;6.68;0.88;;;;;;;;;;5022572;28;20049;-77
2022/07/28 11:23:29;;;;;;;5.20;1.20;;;;;;;;;;5021415;28;20124;-78
2022/07/28 11:26:14;;;;;;;3.00;1.00;;;;;;;;;;5027292;28;20797;-80
2022/07/28 11:29:14;;;;;;;1.95;0.75;;;;;;;;;;5029181;28;20481;-79
2022/07/28 11:31:45;;;;;;;5.35;1.00;;;;;;;;;;4971681;28;20121;-78
2022/07/28 11:34:13;;;;;;;4.10;1.20;;;;;;;;;;5005148;28;20508;-78
2022/07/28 11:37:00;;;;;;;7.35;1.20;;;;;;;;;;5006505;28;20125;-78
2022/07/28 11:39:29;;;;;;;4.60;0.95;;;;;;;;;;5017195;28;20366;-78
2022/07/28 11:41:56;;;;;;;3.30;0.80;;;;;;;;;;4987523;28;20051;-78
2022/07/28 11:44:29;;;;;;;2.92;0.93;;;;;;;;;;5024701;28;20039;-77
2022/07/28 11:47:15;;;;;;;4.85;0.70;;;;;;;;;;5025108;28;20046;-78
2022/07/28 11:49:42;;;;;;;3.25;0.73;;;;;;;;;;5020330;28;20042;-77
2022/07/28 11:52:15;;;;;;;3.25;0.80;;;;;;;;;;5022465;28;20041;-81
2022/07/28 11:54:42;;;;;;;2.63;1.00;;;;;;;;;;5020388;28;20049;-80
2022/07/28 11:57:08;;;;;;;4.88;1.00;;;;;;;;;;5020315;28;20398;-78
2022/07/28 12:00:00;;;;;;;3.35;0.82;;;20.40;99.90;;;;;;5021069;28;20409;-78
2022/07/28 12:02:27;;;;;;;6.55;2.05;;;;;;;;;;5018647;28;20124;-77
2022/07/28 12:05:02;;;;;;;3.17;1.45;;;;;;;;;;5027771;28;20037;-77
2022/07/28 12:07:30;;;;;;;2.88;0.85;;;;;;;;;;5027706;28;20065;-76
2022/07/28 12:09:56;;;;;;;5.43;0.90;;;;;;;;;;5023980;28;20444;-76
2022/07/28 12:12:23;;;;;;;2.75;1.08;;;;;;;;;;5032481;28;20065;-80
2022/07/28 12:14:49;;;;;;;3.38;1.00;;;;;;;;;;5009524;28;20056;-79
2022/07/28 12:17:15;;;;;;;2.45;0.90;;;;;;;;;;5012239;28;20120;-77
2022/07/28 12:19:41;;;;;;;3.67;0.90;;;;;;;;;;5026140;28;20075;-78
2022/07/28 12:22:11;;;;;;;3.78;0.82;;;;;;;;;;5008184;28;20042;-77
2022/07/28 12:24:37;;;;;;;2.60;0.90;;;;;;;;;;5025595;28;20064;-77
2022/07/28 12:27:03;;;;;;;1.70;0.80;;;;;;;;;;5020042;28;20025;-78
2022/07/28 12:29:36;;;;;;;1.95;0.63;;;;;;;;;;5007277;28;20060;-78
2022/07/28 12:32:07;;;;;;;2.92;0.95;;;;;;;;;;4988458;28;20079;-77
2022/07/28 12:34:34;;;;;;;1.40;0.65;;;;;;;;;;5023794;28;20076;-76
2022/07/28 12:37:01;;;;;;;6.90;0.80;;;;;;;;;;4998631;28;20044;-77
2022/07/28 12:39:29;;;;;;;2.88;0.68;;;;;;;;;;5022488;28;20168;-77
2022/07/28 12:42:03;;;;;;;2.45;0.65;;;;;;;;;;5020994;28;20437;-77
2022/07/28 12:44:33;;;;;;;1.92;0.93;;;;;;;;;;5021449;28;20128;-77
2022/07/28 12:47:00;;;;;;;3.58;1.02;;;;;;;;;;5002445;28;20045;-78
2022/07/28 12:49:26;;;;;;;2.60;0.68;;;;;;;;;;5021446;28;20037;-78
2022/07/28 12:51:52;;;;;;;1.55;0.70;;;;;;;;;;4988606;28;20509;-78
2022/07/28 12:54:32;;;;;;;2.38;0.73;;;;;;;;;;5027413;28;20034;-78
2022/07/28 12:56:58;;;;;;;3.10;1.05;;;;;;;;;;5025221;28;21444;-77
2022/07/28 12:59:31;;;;;;;3.85;1.00;;;;;;;;;;5032913;28;20536;-78
2022/07/28 13:01:57;;;;;;;4.75;1.05;;;;;;;;;;5026515;28;20041;-80
2022/07/28 13:04:41;;;;;;;3.75;1.00;;;;;;;;;;5027298;28;20041;-82
2022/07/28 13:07:09;;;;;;;2.50;1.00;;;;;;;;;;5020722;28;20147;-78
2022/07/28 13:09:44;;;;;;;1.65;0.60;;;;;;;;;;5023645;28;21787;-77
2022/07/28 13:12:14;;;;;;;2.40;0.93;;;;;;;;;;4989981;28;20129;-77
2022/07/28 13:14:41;;;;;;;4.13;0.70;;;;;;;;;;5022535;28;20516;-77
2022/07/28 13:17:07;;;;;;;1.40;0.80;;;;;;;;;;5006168;28;20180;-83
2022/07/28 13:19:33;;;;;;;4.28;0.80;;;;;;;;;;5004270;28;20061;-78
2022/07/28 13:21:59;;;;;;;2.45;0.82;;;;;;;;;;5024396;28;20080;-79
2022/07/28 13:24:26;;;;;;;2.60;0.75;;;;;;;;;;5019424;28;20038;-80
2022/07/28 13:27:02;;;;;;;3.90;0.80;;;;;;;;;;5037794;28;20061;-77
2022/07/28 13:29:34;;;;;;;4.00;0.70;;;;;;;;;;5002649;28;20059;-78
2022/07/28 13:32:00;;;;;;;2.50;0.70;;;;;;;;;;5027287;28;20068;-77
2022/07/28 13:34:26;;;;;;;1.27;0.60;;;;;;;;;;5025755;28;20038;-78
2022/07/28 13:36:52;;;;;;;0.98;0.63;;;;;;;;;;5022708;28;20053;-77
2022/07/28 13:39:19;;;;;;;4.03;1.08;;;;;;;;;;5019507;28;21239;-78
2022/07/28 13:41:45;;;;;;;7.80;1.23;;;;;;;;;;5006358;28;20037;-79
2022/07/28 13:44:12;;;;;;;2.35;0.90;;;;;;;;;;5021154;28;20033;-78
2022/07/28 13:46:38;;;;;;;1.90;0.77;;;;;;;;;;5020751;28;20038;-79
2022/07/28 13:49:04;;;;;;;1.98;0.75;;;;;;;;;;5022372;28;20124;-80
2022/07/28 13:51:33;;;;;;;1.45;0.77;;;;;;;;;;4979554;28;20058;-78
2022/07/28 13:54:04;;;;;;;3.28;0.85;;;;;;;;;;4935856;28;20142;-79
2022/07/28 13:56:43;;;;;;;5.03;0.70;;;;;;;;;;4945263;28;20082;-79
2022/07/28 13:59:12;;;;;;;2.05;0.70;;;;;;;;;;4948037;28;20049;-80
2022/07/28 14:01:41;;;;;;;2.58;0.70;;;;;;;;;;4932078;28;20050;-79
2022/07/28 14:04:08;;;;;;;2.10;0.90;;;;;;;;;;4965918;28;20045;-79
2022/07/28 14:06:34;;;;;;;3.75;1.35;;;;;;;;;;4980166;28;20106;-78
2022/07/28 14:09:01;;;;;;;6.03;0.65;;;;;;;;;;4981649;28;20458;-77
2022/07/28 14:11:27;;;;;;;1.52;0.70;;;;;;;;;;4963864;28;20054;-79
2022/07/28 14:13:54;;;;;;;1.55;0.60;;;;;;;;;;4976002;28;20047;-77
2022/07/28 14:16:21;;;;;;;3.83;0.90;;;;;;;;;;4949612;28;20090;-78
2022/07/28 14:18:48;;;;;;;2.67;0.80;;;;;;;;;;4982258;28;20039;-80
2022/07/28 14:21:14;;;;;;;2.28;0.80;;;;;;;;;;4968410;28;20104;-78
2022/07/28 14:23:40;;;;;;;4.22;0.90;;;;;;;;;;5022819;28;20088;-77
2022/07/28 14:26:07;;;;;;;1.85;0.80;;;;;;;;;;5026969;28;20040;-81
2022/07/28 14:28:33;;;;;;;1.15;0.70;;;;;;;;;;5035161;28;20453;-78
2022/07/28 14:30:59;;;;;;;4.28;1.05;;;;;;;;;;5015612;28;20085;-78
2022/07/28 14:33:28;;;;;;;2.97;0.90;;;;;;;;;;4984563;28;20038;-79
2022/07/28 14:35:55;;;;;;;1.98;0.80;;;;;;;;;;5029085;28;20053;-75
2022/07/28 14:38:32;;;;;;;3.75;1.25;;;;;;;;;;5012796;28;20561;-76
2022/07/28 14:41:04;;;;;;;2.53;0.90;;;;;;;;;;5012431;28;20045;-79
2022/07/28 14:43:30;;;;;;;1.95;1.00;;;;;;;;;;5029664;28;20284;-77
2022/07/28 14:45:56;;;;;;;3.05;0.80;;;;;;;;;;5026703;28;20030;-78
2022/07/28 14:48:30;;;;;;;5.00;0.90;;;;;;;;;;5030235;28;20091;-78
2022/07/28 14:50:57;;;;;;;;;;;;;;;;;;5034999;28;20076;-77
2022/07/28 14:53:23;;;;;;;3.42;1.30;;;;;;;;;;5013149;28;19925;-77
2022/07/28 14:55:49;;;;;;;4.28;1.67;;;;;;;;;;5030547;28;20566;-80
2022/07/28 14:58:15;;;;;;;1.58;0.90;;;;;;;;;;5030008;28;20038;-77
2022/07/28 15:00:41;;;;;;;2.28;0.80;;;;;;;;;;5021797;28;20048;-78
2022/07/28 15:03:08;;;;;;;3.78;0.75;;;;;;;;;;5020780;28;20042;-77
2022/07/28 15:05:34;;;;;;;2.50;0.90;;;;;;;;;;4991653;28;20137;-78
2022/07/28 15:08:00;;;;;;;3.78;1.13;;;;;;;;;;5027317;28;20474;-78
2022/07/28 15:10:26;;;;;;;2.53;0.60;;;;;;;;;;5029653;28;20519;-77
2022/07/28 15:12:52;;;;;;;4.70;0.93;;;;;;;;;;5022085;28;20064;-78
2022/07/28 15:15:25;;;;;;;3.80;1.77;;;;;;;;;;4972355;28;20041;-78
2022/07/28 15:17:51;;;;;;;1.77;0.80;;;;;;;;;;5006019;28;20058;-79
2022/07/28 15:20:17;;;;;;;3.78;1.02;;;;;;;;;;5008160;28;20084;-77